Time;durP1;ratioP1;P1;durP2;ratioP2;P2;SDS_P1;SDS_P2;PMS_P1;PMS_P2;Temp;Humidity;BMP_temperature;BMP_pressure;BME280_temperature;BME280_humidity;BME280_pressure;Samples;Min_cycle;Max_cycle;Signal;HPM_P1;HPM_P2
2022/06/10 00:02:11;;;;;;;;;;;20.10;57.50;;;;;;4880044;29;20293;-65
2022/06/10 00:04:36;;;;;;;;;;;20.00;58.20;;;;;;4880022;29;19966;-63
2022/06/10 00:07:02;;;;;;;;;;;19.90;58.80;;;;;;4880092;29;19939;-64
2022/06/10 00:09:28;;;;;;;;;;;19.90;59.10;;;;;;4879595;29;20337;-61
2022/06/10 00:11:53;;;;;;;;;;;19.90;58.40;;;;;;4880073;29;20009;-64
2022/06/10 00:14:19;;;;;;;;;;;19.90;58.80;;;;;;4879773;29;19911;-64
2022/06/10 00:16:44;;;;;;;;;;;19.90;59.10;;;;;;4880027;29;19916;-63
2022/06/10 00:19:10;;;;;;;;;;;19.90;58.90;;;;;;4879669;29;19912;-64
2022/06/10 00:21:35;;;;;;;;;;;19.90;57.90;;;;;;4879780;29;19912;-60
2022/06/10 00:24:01;;;;;;;;;;;19.90;59.50;;;;;;4879771;29;20330;-64
2022/06/10 00:26:26;;;;;;;;;;;19.90;59.00;;;;;;4879563;29;19912;-64
2022/06/10 00:28:52;;;;;;;;;;;19.90;58.70;;;;;;4879777;29;20533;-64
2022/06/10 00:31:18;;;;;;;;;;;20.00;58.10;;;;;;4879805;29;19916;-64
2022/06/10 00:33:43;;;;;;;;;;;19.90;56.80;;;;;;4879963;29;19912;-63
2022/06/10 00:36:10;;;;;;;;;;;19.90;59.00;;;;;;4879996;29;20007;-61
2022/06/10 00:38:35;;;;;;;;;;;19.90;58.50;;;;;;4879738;29;19912;-61
2022/06/10 00:41:02;;;;;;;;;;;19.80;59.20;;;;;;4880025;29;19919;-62
2022/06/10 00:43:32;;;;;;;;;;;20.00;59.00;;;;;;4879824;29;19963;-62
2022/06/10 00:46:01;;;;;;;;;;;19.90;58.30;;;;;;4879753;29;20286;-60
2022/06/10 00:48:37;;;;;;;;;;;19.90;59.00;;;;;;4879721;29;19911;-59
2022/06/10 00:51:09;;;;;;;;;;;19.80;57.60;;;;;;4880615;29;21021;-63
2022/06/10 00:53:35;;;;;;;;;;;19.90;58.20;;;;;;4884512;29;19916;-62
2022/06/10 00:56:04;;;;;;;;;;;19.90;58.10;;;;;;4884704;29;19941;-59
2022/06/10 00:58:35;;;;;;;;;;;19.90;58.80;;;;;;4886596;29;19920;-61
2022/06/10 01:01:01;;;;;;;;;;;19.90;56.60;;;;;;4883424;29;19912;-63
2022/06/10 01:03:27;;;;;;;;;;;19.90;56.30;;;;;;4883019;29;19959;-64
2022/06/10 01:05:52;;;;;;;;;;;19.80;58.90;;;;;;4883125;29;19912;-62
2022/06/10 01:08:19;;;;;;;;;;;19.80;59.70;;;;;;4883155;29;19919;-64
2022/06/10 01:10:48;;;;;;;;;;;19.80;57.20;;;;;;4883095;29;19924;-62
2022/06/10 01:13:23;;;;;;;;;;;19.70;59.40;;;;;;4882696;29;19912;-61
2022/06/10 01:16:07;;;;;;;;;;;19.60;60.00;;;;;;4882963;29;20277;-60
2022/06/10 01:18:38;;;;;;;;;;;19.60;61.50;;;;;;4882723;29;19916;-63
2022/06/10 01:21:14;;;;;;;;;;;19.40;61.10;;;;;;4882680;29;20358;-61
2022/06/10 01:23:43;;;;;;;;;;;19.50;58.20;;;;;;4882691;29;19912;-63
2022/06/10 01:26:27;;;;;;;;;;;19.50;59.30;;;;;;4882832;29;20022;-62
2022/06/10 01:29:11;;;;;;;;;;;19.50;61.40;;;;;;4882650;29;19931;-64
2022/06/10 01:32:00;;;;;;;;;;;19.50;58.50;;;;;;4882578;29;19912;-61
2022/06/10 01:34:48;;;;;;;;;;;19.50;58.50;;;;;;4877157;29;19949;-63
2022/06/10 01:37:18;;;;;;;;;;;19.50;57.80;;;;;;4882578;29;19916;-62
2022/06/10 01:40:02;;;;;;;;;;;19.60;58.60;;;;;;4882236;29;19966;-63
2022/06/10 01:42:30;;;;;;;;;;;19.50;58.60;;;;;;4882395;29;20432;-61
2022/06/10 01:45:14;;;;;;;;;;;19.60;57.90;;;;;;4882524;29;19999;-62
2022/06/10 01:47:58;;;;;;;;;;;19.60;58.00;;;;;;4882353;29;19916;-61
2022/06/10 01:50:42;;;;;;;;;;;19.50;58.10;;;;;;4882258;29;19924;-62
2022/06/10 01:53:10;;;;;;;;;;;19.60;57.30;;;;;;4882162;29;20018;-60
2022/06/10 01:55:39;;;;;;;;;;;19.60;58.70;;;;;;4882077;29;19912;-62
2022/06/10 01:58:15;;;;;;;;;;;19.70;57.70;;;;;;4882204;29;19912;-64
2022/06/10 02:00:43;;;;;;;;;;;19.60;57.30;;;;;;4882310;29;20231;-61
2022/06/10 02:03:08;;;;;;;;;;;19.70;57.20;;;;;;4882104;29;19912;-63
2022/06/10 02:05:42;;;;;;;;;;;19.80;55.80;;;;;;4882218;29;19995;-59
2022/06/10 02:08:29;;;;;;;;;;;19.70;56.10;;;;;;4880673;29;19998;-60
2022/06/10 02:10:54;;;;;;;;;;;19.70;57.30;;;;;;4881635;29;20300;-62
2022/06/10 02:13:25;;;;;;;;;;;19.70;57.70;;;;;;4881747;29;19912;-60
2022/06/10 02:15:52;;;;;;;;;;;19.60;59.20;;;;;;4881861;29;19912;-60
2022/06/10 02:18:22;;;;;;;;;;;19.60;58.40;;;;;;4881557;29;19912;-64
2022/06/10 02:20:52;;;;;;;;;;;19.50;58.20;;;;;;4881983;29;19947;-62
2022/06/10 02:23:20;;;;;;;;;;;19.50;57.50;;;;;;4881754;29;19960;-63
2022/06/10 02:25:51;;;;;;;;;;;19.50;57.30;;;;;;4881475;29;19911;-62
2022/06/10 02:28:20;;;;;;;;;;;19.60;55.40;;;;;;4881521;29;20288;-64
2022/06/10 02:30:49;;;;;;;;;;;19.50;57.30;;;;;;4881593;29;19976;-62
2022/06/10 02:33:15;;;;;;;;;;;19.50;58.40;;;;;;4881373;29;19912;-63
2022/06/10 02:35:45;;;;;;;;;;;19.60;56.90;;;;;;4881755;29;20277;-63
2022/06/10 02:38:19;;;;;;;;;;;19.60;56.00;;;;;;4881403;29;20357;-61
2022/06/10 02:40:53;;;;;;;;;;;19.60;58.10;;;;;;4881366;29;19923;-63
2022/06/10 02:43:26;;;;;;;;;;;19.50;57.00;;;;;;4881178;29;20360;-62
2022/06/10 02:46:02;;;;;;;;;;;19.60;54.80;;;;;;4881517;29;19915;-64
2022/06/10 02:48:44;;;;;;;;;;;19.60;55.60;;;;;;4881359;29;19972;-63
2022/06/10 02:51:09;;;;;;;;;;;19.60;56.80;;;;;;4881034;29;20348;-65
2022/06/10 02:53:35;;;;;;;;;;;19.60;57.50;;;;;;4881252;29;19963;-62
2022/06/10 02:56:00;;;;;;;;;;;19.60;56.20;;;;;;4881189;29;19918;-60
2022/06/10 03:01:44;;;;;;;;;;;19.70;55.30;;;;;;4881416;29;19918;-61
2022/06/10 03:04:22;;;;;;;;;;;19.60;56.60;;;;;;4859699;29;19912;-59
2022/06/10 03:06:53;;;;;;;;;;;19.50;57.50;;;;;;4880712;29;20010;-62
2022/06/10 03:09:19;;;;;;;;;;;19.50;56.90;;;;;;4880530;29;19926;-62
2022/06/10 03:11:50;;;;;;;;;;;19.50;57.50;;;;;;4881220;29;20010;-59
2022/06/10 03:14:31;;;;;;;;;;;19.60;57.60;;;;;;4880886;29;19918;-61
2022/06/10 03:17:17;;;;;;;;;;;19.60;56.20;;;;;;4880771;29;19916;-62
2022/06/10 03:19:52;;;;;;;;;;;19.60;57.20;;;;;;4873254;29;19915;-63
2022/06/10 03:22:26;;;;;;;;;;;19.60;56.00;;;;;;4881174;29;20284;-63
2022/06/10 03:25:02;;;;;;;;;;;19.70;55.20;;;;;;4880772;29;19919;-64
2022/06/10 03:27:38;;;;;;;;;;;19.60;56.60;;;;;;4880555;29;20336;-64
2022/06/10 03:30:05;;;;;;;;;;;19.60;56.30;;;;;;4863743;29;20375;-63
2022/06/10 03:32:42;;;;;;;;;;;19.60;56.10;;;;;;4880423;29;19912;-63
2022/06/10 03:35:18;;;;;;;;;;;19.70;55.80;;;;;;4880658;29;19912;-62
2022/06/10 03:37:44;;;;;;;;;;;19.60;57.20;;;;;;4880408;29;19968;-61
2022/06/10 03:40:15;;;;;;;;;;;19.50;58.40;;;;;;4880377;29;19912;-62
2022/06/10 03:42:44;;;;;;;;;;;19.40;57.80;;;;;;4880217;29;19938;-62
2022/06/10 03:45:13;;;;;;;;;;;19.40;58.70;;;;;;4880246;29;19919;-62
2022/06/10 03:47:38;;;;;;;;;;;19.40;57.10;;;;;;4880163;29;20006;-65
2022/06/10 03:50:06;;;;;;;;;;;19.50;57.50;;;;;;4879710;29;20025;-63
2022/06/10 03:52:33;;;;;;;;;;;19.50;57.70;;;;;;4880325;29;19967;-62
2022/06/10 03:54:59;;;;;;;;;;;19.60;57.50;;;;;;4880144;29;19954;-62
2022/06/10 03:57:24;;;;;;;;;;;19.60;54.70;;;;;;4880278;29;20333;-60
2022/06/10 03:59:50;;;;;;;;;;;19.50;56.00;;;;;;4879834;29;20250;-60
2022/06/10 04:02:15;;;;;;;;;;;19.60;56.30;;;;;;4880005;29;19935;-62
2022/06/10 04:04:42;;;;;;;;;;;19.60;56.70;;;;;;4879863;29;19912;-61
2022/06/10 04:07:09;;;;;;;;;;;19.50;57.00;;;;;;4879867;29;19918;-62
2022/06/10 04:09:34;;;;;;;;;;;19.50;58.10;;;;;;4879864;29;19919;-61
2022/06/10 04:12:00;;;;;;;;;;;19.60;55.50;;;;;;4879797;29;20379;-61
2022/06/10 04:14:25;;;;;;;;;;;19.60;56.20;;;;;;4879893;29;20360;-60
2022/06/10 04:16:51;;;;;;;;;;;19.70;56.20;;;;;;4879971;29;20376;-61
2022/06/10 04:19:16;;;;;;;;;;;19.80;54.40;;;;;;4879695;29;19919;-62
2022/06/10 04:21:43;;;;;;;;;;;19.70;57.10;;;;;;4879911;29;20321;-63
2022/06/10 04:24:09;;;;;;;;;;;19.70;58.20;;;;;;4879789;29;20335;-60
2022/06/10 04:26:34;;;;;;;;;;;19.80;54.50;;;;;;4880065;29;20321;-63
2022/06/10 04:29:00;;;;;;;;;;;19.80;55.80;;;;;;4879588;29;19916;-63
2022/06/10 04:31:25;;;;;;;;;;;19.90;56.20;;;;;;4883023;29;19916;-59
2022/06/10 04:33:51;;;;;;;;;;;19.90;55.10;;;;;;4887853;29;19912;-59
2022/06/10 04:36:18;;;;;;;;;;;19.90;56.30;;;;;;4887090;29;20035;-59
2022/06/10 04:38:44;;;;;;;;;;;19.90;57.50;;;;;;4883767;29;19985;-57
2022/06/10 04:41:10;;;;;;;;;;;19.90;56.60;;;;;;4883400;29;19928;-58
2022/06/10 04:43:36;;;;;;;;;;;19.80;57.80;;;;;;4883317;29;19912;-59
2022/06/10 04:46:02;;;;;;;;;;;19.80;59.10;;;;;;4883380;29;20315;-59
2022/06/10 04:48:28;;;;;;;;;;;19.70;62.40;;;;;;4882977;29;19912;-58
2022/06/10 04:50:54;;;;;;;;;;;19.70;61.80;;;;;;4883229;29;19985;-58
2022/06/10 04:53:19;;;;;;;;;;;19.80;59.10;;;;;;4883457;29;19918;-58
2022/06/10 04:55:45;;;;;;;;;;;19.90;60.00;;;;;;4883428;29;19969;-58
2022/06/10 04:58:11;;;;;;;;;;;19.80;59.90;;;;;;4883154;29;20019;-59
2022/06/10 05:00:39;;;;;;;;;;;19.70;61.20;;;;;;4866548;29;20006;-58
2022/06/10 05:03:05;;;;;;;;;;;19.80;60.00;;;;;;4883334;29;19986;-58
2022/06/10 05:05:31;;;;;;;;;;;19.80;62.60;;;;;;4883425;29;19916;-58
2022/06/10 05:07:57;;;;;;;;;;;19.80;62.10;;;;;;4883177;29;19912;-59
2022/06/10 05:10:23;;;;;;;;;;;19.80;62.90;;;;;;4882948;29;19923;-59
2022/06/10 05:12:50;;;;;;;;;;;19.90;62.80;;;;;;4883300;29;20314;-59
2022/06/10 05:15:20;;;;;;;;;;;20.00;59.40;;;;;;4883034;29;19968;-57
2022/06/10 05:17:46;;;;;;;;;;;20.00;60.40;;;;;;4882942;29;19938;-59
2022/06/10 05:20:14;;;;;;;;;;;19.90;62.30;;;;;;4883004;29;20283;-59
2022/06/10 05:22:40;;;;;;;;;;;19.90;63.10;;;;;;4883143;29;19912;-59
2022/06/10 05:25:06;;;;;;;;;;;19.90;64.60;;;;;;4882771;29;19911;-61
2022/06/10 05:27:31;;;;;;;;;;;19.90;62.10;;;;;;4882797;29;19960;-60
2022/06/10 05:29:57;;;;;;;;;;;20.00;65.10;;;;;;4882497;29;19920;-59
2022/06/10 05:32:22;;;;;;;;;;;20.10;65.00;;;;;;4882584;29;20003;-61
2022/06/10 05:34:48;;;;;;;;;;;20.10;67.10;;;;;;4882754;29;19912;-61
2022/06/10 05:37:16;;;;;;;;;;;20.20;61.20;;;;;;4882787;29;20272;-61
2022/06/10 05:39:41;;;;;;;;;;;20.50;63.70;;;;;;4882715;29;19912;-65
2022/06/10 05:42:09;;;;;;;;;;;20.30;60.30;;;;;;4882158;29;20420;-59
2022/06/10 05:44:37;;;;;;;;;;;20.70;61.20;;;;;;4882235;29;19979;-57
2022/06/10 05:47:03;;;;;;;;;;;21.20;60.40;;;;;;4882347;29;19919;-60
2022/06/10 05:49:29;;;;;;;;;;;22.00;58.70;;;;;;4882108;29;20325;-59
2022/06/10 05:51:55;;;;;;;;;;;22.50;54.70;;;;;;4882559;29;19911;-60
2022/06/10 05:54:21;;;;;;;;;;;23.00;54.30;;;;;;4865439;29;19919;-57
2022/06/10 05:56:46;;;;;;;;;;;23.50;53.00;;;;;;4881818;29;20380;-57
2022/06/10 05:59:14;;;;;;;;;;;23.70;51.60;;;;;;4881790;29;20002;-58
2022/06/10 06:01:40;;;;;;;;;;;24.00;50.10;;;;;;4865018;29;19916;-57
2022/06/10 06:04:06;;;;;;;;;;;24.20;48.60;;;;;;4865330;29;20353;-58
2022/06/10 06:06:31;;;;;;;;;;;24.60;43.60;;;;;;4882010;29;19912;-58
2022/06/10 06:08:57;;;;;;;;;;;25.10;43.00;;;;;;4881746;29;20369;-61
2022/06/10 06:11:22;;;;;;;;;;;25.20;41.60;;;;;;4882024;29;19944;-58
2022/06/10 06:13:48;;;;;;;;;;;25.50;41.10;;;;;;4881982;29;19912;-65
2022/06/10 06:16:15;;;;;;;;;;;25.60;39.20;;;;;;4865024;29;20225;-59
2022/06/10 06:18:40;;;;;;;;;;;25.60;39.80;;;;;;4888235;29;20392;-68
2022/06/10 06:21:06;;;;;;;;;;;25.90;40.50;;;;;;4890128;29;19912;-68
2022/06/10 06:23:32;;;;;;;;;;;26.20;40.00;;;;;;4890541;29;19918;-58
2022/06/10 06:25:57;;;;;;;;;;;26.30;40.50;;;;;;4891423;29;19947;-61
2022/06/10 06:28:23;;;;;;;;;;;26.50;39.50;;;;;;4889121;29;19919;-58
2022/06/10 06:30:48;;;;;;;;;;;26.60;37.50;;;;;;4890585;29;19919;-64
2022/06/10 06:33:14;;;;;;;;;;;26.50;38.00;;;;;;4881280;29;19912;-66
2022/06/10 06:35:40;;;;;;;;;;;26.60;38.10;;;;;;4881536;29;19912;-63
2022/06/10 06:38:06;;;;;;;;;;;26.70;37.50;;;;;;4881368;29;19967;-65
2022/06/10 06:40:32;;;;;;;;;;;26.70;37.10;;;;;;4881246;29;19912;-65
2022/06/10 06:42:57;;;;;;;;;;;26.70;37.50;;;;;;4881138;29;20388;-63
2022/06/10 06:45:23;;;;;;;;;;;26.60;38.00;;;;;;4881361;29;19912;-58
2022/06/10 06:47:51;;;;;;;;;;;26.50;38.10;;;;;;4880973;29;20010;-63
2022/06/10 06:50:19;;;;;;;;;;;26.30;39.60;;;;;;4881038;29;20303;-65
2022/06/10 06:52:44;;;;;;;;;;;26.00;38.00;;;;;;4882065;29;20288;-63
2022/06/10 06:55:10;;;;;;;;;;;25.90;39.40;;;;;;4880314;29;19916;-66
2022/06/10 06:57:35;;;;;;;;;;;25.80;40.10;;;;;;4880422;29;19918;-61
2022/06/10 07:00:08;;;;;;;;;;;25.70;39.20;;;;;;4880032;29;19964;-62
2022/06/10 07:02:34;;;;;;;;;;;25.60;38.30;;;;;;4880312;29;19951;-70
2022/06/10 07:05:00;;;;;;;;;;;25.50;38.80;;;;;;4888044;29;19969;-72
2022/06/10 07:07:26;;;;;;;;;;;25.20;38.80;;;;;;4880767;29;19916;-60
2022/06/10 07:09:51;;;;;;;;;;;25.20;38.50;;;;;;4880759;29;20283;-63
2022/06/10 07:12:17;;;;;;;;;;;25.20;40.20;;;;;;4880847;29;19934;-58
2022/06/10 07:14:42;;;;;;;;;;;25.20;39.30;;;;;;4880863;29;20380;-60
2022/06/10 07:17:08;;;;;;;;;;;25.40;39.00;;;;;;4880888;29;20253;-59
2022/06/10 07:19:34;;;;;;;;;;;25.40;39.20;;;;;;4880742;29;20014;-59
2022/06/10 07:21:59;;;;;;;;;;;25.50;39.40;;;;;;4880554;29;19912;-59
2022/06/10 07:24:25;;;;;;;;;;;25.50;39.50;;;;;;4880910;29;20466;-58
2022/06/10 07:26:51;;;;;;;;;;;25.50;40.10;;;;;;4880621;29;19911;-59
2022/06/10 07:29:17;;;;;;;;;;;25.40;39.90;;;;;;4880159;29;20014;-59
2022/06/10 07:31:44;;;;;;;;;;;25.20;40.30;;;;;;4880440;29;20019;-58
2022/06/10 07:34:10;;;;;;;;;;;25.10;40.50;;;;;;4880501;29;20317;-62
2022/06/10 07:36:36;;;;;;;;;;;24.90;39.30;;;;;;4880459;29;19911;-60
2022/06/10 07:39:02;;;;;;;;;;;25.00;40.40;;;;;;4880601;29;19990;-61
2022/06/10 07:44:11;;;;;;;;;;;24.90;41.40;;;;;;4880361;29;19918;-59
2022/06/10 07:46:37;;;;;;;;;;;24.80;40.00;;;;;;4880366;29;20010;-59
2022/06/10 07:49:03;;;;;;;;;;;24.80;41.00;;;;;;4879889;29;19920;-60
2022/06/10 07:51:28;;;;;;;;;;;24.70;41.00;;;;;;4879944;29;19927;-59
2022/06/10 07:53:54;;;;;;;;;;;24.70;42.30;;;;;;4880173;29;19912;-58
2022/06/10 07:56:22;;;;;;;;;;;24.60;41.30;;;;;;4880281;29;19912;-59
2022/06/10 07:58:49;;;;;;;;;;;24.60;40.30;;;;;;4863262;29;19941;-61
2022/06/10 08:01:15;;;;;;;;;;;24.50;41.00;;;;;;4880283;29;19923;-59
2022/06/10 08:03:40;;;;;;;;;;;24.50;40.70;;;;;;4880083;29;19912;-61
2022/06/10 08:06:06;;;;;;;;;;;24.50;41.50;;;;;;4879734;29;20383;-66
2022/06/10 08:08:32;;;;;;;;;;;24.50;41.50;;;;;;4879774;29;20391;-65
2022/06/10 08:10:57;;;;;;;;;;;24.40;40.30;;;;;;4897462;23;19970;-70
2022/06/10 08:13:23;;;;;;;;;;;24.40;41.70;;;;;;4898847;29;19911;-74
2022/06/10 08:15:49;;;;;;;;;;;24.40;41.90;;;;;;4897906;29;19957;-70
2022/06/10 08:18:16;;;;;;;;;;;24.40;40.60;;;;;;4897869;29;19998;-70
2022/06/10 08:23:27;;;;;;;;;;;24.50;40.30;;;;;;4901701;29;19922;-71
2022/06/10 08:25:54;;;;;;;;;;;24.30;41.40;;;;;;4907635;29;20402;-63
2022/06/10 08:28:20;;;;;;;;;;;24.30;42.20;;;;;;4908229;29;20002;-75
2022/06/10 08:30:46;;;;;;;;;;;24.30;43.10;;;;;;4903331;29;20002;-64
2022/06/10 08:33:11;;;;;;;;;;;24.40;42.30;;;;;;4903078;29;19915;-74
2022/06/10 08:35:37;;;;;;;;;;;24.40;41.80;;;;;;4905419;29;19959;-69
2022/06/10 08:38:04;;;;;;;;;;;24.40;41.50;;;;;;4905302;29;19915;-76
2022/06/10 08:40:40;;;;;;;;;;;24.40;41.80;;;;;;4902258;29;20337;-77
2022/06/10 08:43:12;;;;;;;;;;;24.40;41.90;;;;;;4900242;29;19966;-74
2022/06/10 08:45:50;;;;;;;;;;;24.40;42.40;;;;;;4901484;29;20419;-75
2022/06/10 08:48:38;;;;;;;;;;;24.50;42.00;;;;;;4898869;29;21481;-72
2022/06/10 08:51:09;;;;;;;;;;;24.50;41.50;;;;;;4898114;29;19920;-68
2022/06/10 08:53:34;;;;;;;;;;;24.60;42.10;;;;;;4898319;29;19918;-72
2022/06/10 08:56:03;;;;;;;;;;;24.70;42.50;;;;;;4898232;29;19912;-69
2022/06/10 08:58:32;;;;;;;;;;;24.80;42.60;;;;;;4898215;29;19916;-74
2022/06/10 09:01:00;;;;;;;;;;;24.80;42.80;;;;;;4898597;29;20409;-70
2022/06/10 09:03:34;;;;;;;;;;;24.70;44.30;;;;;;4898158;29;19919;-70
2022/06/10 09:06:02;;;;;;;;;;;24.70;44.40;;;;;;4898077;29;19915;-70
2022/06/10 09:08:31;;;;;;;;;;;24.80;43.50;;;;;;4898056;29;19919;-71
2022/06/10 09:11:01;;;;;;;;;;;24.70;43.50;;;;;;4897653;29;20287;-68
2022/06/10 09:13:27;;;;;;;;;;;24.80;44.10;;;;;;4900821;29;19922;-66
2022/06/10 09:15:55;;;;;;;;;;;24.70;44.20;;;;;;4907525;29;19911;-67
2022/06/10 09:18:41;;;;;;;;;;;24.60;43.80;;;;;;4910600;29;20023;-68
2022/06/10 09:21:12;;;;;;;;;;;24.70;44.10;;;;;;4872734;29;19911;-67
2022/06/10 09:23:39;;;;;;;;;;;24.70;44.60;;;;;;4913512;29;19911;-65
2022/06/10 09:26:09;;;;;;;;;;;24.70;44.10;;;;;;4920421;29;19917;-67
2022/06/10 09:28:37;;;;;;;;;;;24.70;44.80;;;;;;4920048;29;20376;-69
2022/06/10 09:31:15;;;;;;;;;;;24.80;45.00;;;;;;4919636;29;19971;-66
2022/06/10 09:33:45;;;;;;;;;;;24.80;45.20;;;;;;4908348;29;20006;-66
2022/06/10 09:36:19;;;;;;;;;;;24.80;43.90;;;;;;4909212;29;20013;-67
2022/06/10 09:39:02;;;;;;;;;;;24.80;43.00;;;;;;4909013;29;19915;-67
2022/06/10 09:41:43;;;;;;;;;;;24.90;42.50;;;;;;4907727;29;20261;-67
2022/06/10 09:44:15;;;;;;;;;;;24.90;42.00;;;;;;4901108;29;20269;-67
2022/06/10 09:47:10;;;;;;;;;;;25.00;42.20;;;;;;4901394;29;19911;-68
2022/06/10 09:49:46;;;;;;;;;;;25.10;41.50;;;;;;4900953;29;19920;-70
2022/06/10 09:52:30;;;;;;;;;;;25.20;41.50;;;;;;4900839;29;19940;-69
2022/06/10 09:54:55;;;;;;;;;;;25.10;39.40;;;;;;4901138;29;19919;-69
2022/06/10 09:57:39;;;;;;;;;;;25.20;39.90;;;;;;4900893;29;19937;-73
2022/06/10 10:00:18;;;;;;;;;;;25.30;41.30;;;;;;4901023;29;19911;-72
2022/06/10 10:02:57;;;;;;;;;;;25.40;40.50;;;;;;4900882;29;20288;-66
2022/06/10 10:05:41;;;;;;;;;;;25.60;40.40;;;;;;4900675;29;19911;-68
2022/06/10 10:08:17;;;;;;;;;;;25.60;41.20;;;;;;4900885;29;20381;-69
2022/06/10 10:10:51;;;;;;;;;;;25.50;39.80;;;;;;4904610;29;20292;-68
2022/06/10 10:13:26;;;;;;;;;;;25.50;39.60;;;;;;4891091;29;20264;-69
2022/06/10 10:16:10;;;;;;;;;;;25.60;40.70;;;;;;4906589;29;19911;-74
2022/06/10 10:18:38;;;;;;;;;;;25.60;38.70;;;;;;4907473;29;19912;-68
2022/06/10 10:21:07;;;;;;;;;;;25.40;40.00;;;;;;4908716;29;20367;-69
2022/06/10 10:23:47;;;;;;;;;;;25.30;40.10;;;;;;4883547;29;19917;-69
2022/06/10 10:26:35;;;;;;;;;;;25.30;40.40;;;;;;4898271;29;19916;-66
2022/06/10 10:29:05;;;;;;;;;;;25.20;39.40;;;;;;4890322;29;19965;-66
2022/06/10 10:31:34;;;;;;;;;;;25.30;40.50;;;;;;4899634;29;19920;-65
2022/06/10 10:34:01;;;;;;;;;;;25.30;41.00;;;;;;4883059;29;20364;-66
2022/06/10 10:36:27;;;;;;;;;;;25.30;41.30;;;;;;4899902;29;19990;-67
2022/06/10 10:38:53;;;;;;;;;;;25.40;40.40;;;;;;4899521;29;20045;-70
2022/06/10 10:41:40;;;;;;;;;;;25.40;40.10;;;;;;4899541;29;19911;-69
2022/06/10 10:44:07;;;;;;;;;;;25.40;40.90;;;;;;4899772;29;20301;-70
2022/06/10 10:46:33;;;;;;;;;;;25.40;41.40;;;;;;4899732;29;19911;-66
2022/06/10 10:48:59;;;;;;;;;;;25.40;40.40;;;;;;4899431;29;20531;-69
2022/06/10 10:51:37;;;;;;;;;;;25.40;40.20;;;;;;4899331;29;20295;-65
2022/06/10 10:54:12;;;;;;;;;;;25.30;40.80;;;;;;4899557;29;19912;-71
2022/06/10 10:56:40;;;;;;;;;;;25.40;41.20;;;;;;4898551;29;20207;-69
2022/06/10 10:59:19;;;;;;;;;;;25.60;40.80;;;;;;4898635;29;20406;-68
2022/06/10 11:01:46;;;;;;;;;;;25.70;41.20;;;;;;4899150;29;19992;-68
2022/06/10 11:04:16;;;;;;;;;;;25.80;40.60;;;;;;4901449;29;19916;-66
2022/06/10 11:06:41;;;;;;;;;;;25.70;40.70;;;;;;4901389;29;20780;-70
2022/06/10 11:09:17;;;;;;;;;;;25.70;40.70;;;;;;4899055;29;19998;-70
2022/06/10 11:11:43;;;;;;;;;;;25.70;40.40;;;;;;4898705;29;19930;-67
2022/06/10 11:14:28;;;;;;;;;;;25.70;40.10;;;;;;4899255;29;19969;-67
2022/06/10 11:16:57;;;;;;;;;;;25.70;40.20;;;;;;4898649;29;19971;-66
2022/06/10 11:19:25;;;;;;;;;;;25.70;40.20;;;;;;4898858;29;19950;-66
2022/06/10 11:21:53;;;;;;;;;;;25.60;39.90;;;;;;4898739;29;19984;-67
2022/06/10 11:24:22;;;;;;;;;;;25.60;40.10;;;;;;4898847;29;20246;-64
2022/06/10 11:26:56;;;;;;;;;;;25.50;40.50;;;;;;4898785;29;19912;-64
2022/06/10 11:29:23;;;;;;;;;;;25.60;40.50;;;;;;4888650;29;19975;-63
2022/06/10 11:31:51;;;;;;;;;;;25.50;40.80;;;;;;4898733;29;20007;-69
2022/06/10 11:34:19;;;;;;;;;;;25.50;41.10;;;;;;4898715;29;19912;-65
2022/06/10 11:36:50;;;;;;;;;;;25.40;41.80;;;;;;4881740;29;19916;-63
2022/06/10 11:39:17;;;;;;;;;;;25.50;41.30;;;;;;4898342;29;19961;-65
2022/06/10 11:41:57;;;;;;;;;;;25.50;40.10;;;;;;4898019;29;19973;-66
2022/06/10 11:44:23;;;;;;;;;;;25.50;40.40;;;;;;4898035;29;19915;-64
2022/06/10 11:46:52;;;;;;;;;;;25.50;40.40;;;;;;4893336;29;20003;-64
2022/06/10 11:49:20;;;;;;;;;;;25.50;41.10;;;;;;4883695;29;19923;-65
2022/06/10 11:52:06;;;;;;;;;;;25.40;39.70;;;;;;4897369;29;19916;-64
2022/06/10 11:54:37;;;;;;;;;;;25.40;39.90;;;;;;4896907;29;20387;-63
2022/06/10 12:00:13;;;;;;;;;;;25.40;40.40;;;;;;4896294;29;19921;-65
2022/06/10 12:02:40;;;;;;;;;;;25.40;40.50;;;;;;4897665;29;19915;-63
2022/06/10 12:05:09;;;;;;;;;;;25.40;39.80;;;;;;4897885;29;19920;-64
2022/06/10 12:07:37;;;;;;;;;;;25.40;40.00;;;;;;4880750;29;19967;-65
2022/06/10 12:10:05;;;;;;;;;;;25.40;40.70;;;;;;4897451;29;19920;-65
2022/06/10 12:12:34;;;;;;;;;;;25.40;39.90;;;;;;4897553;29;19930;-68
2022/06/10 12:15:01;;;;;;;;;;;25.40;41.20;;;;;;4895401;29;19916;-65
2022/06/10 12:17:29;;;;;;;;;;;25.40;40.80;;;;;;4880515;29;19915;-65
2022/06/10 12:19:57;;;;;;;;;;;25.40;40.90;;;;;;4897386;29;19912;-65
2022/06/10 12:22:24;;;;;;;;;;;25.40;41.60;;;;;;4897591;29;19912;-65
2022/06/10 12:24:50;;;;;;;;;;;25.40;41.30;;;;;;4897503;29;19926;-65
2022/06/10 12:27:20;;;;;;;;;;;25.40;41.20;;;;;;4897549;29;19915;-65
2022/06/10 12:30:02;;;;;;;;;;;25.40;41.30;;;;;;4896947;29;19930;-65
2022/06/10 12:32:30;;;;;;;;;;;25.50;40.50;;;;;;4897389;29;19912;-63
2022/06/10 12:35:00;;;;;;;;;;;25.60;41.00;;;;;;4897559;29;19916;-65
2022/06/10 12:37:26;;;;;;;;;;;25.60;41.40;;;;;;4898072;29;19915;-64
2022/06/10 12:39:54;;;;;;;;;;;25.60;41.60;;;;;;4880837;29;19911;-63
2022/06/10 12:42:22;;;;;;;;;;;25.60;42.00;;;;;;4897782;29;19915;-66
2022/06/10 12:44:52;;;;;;;;;;;25.50;41.70;;;;;;4898055;29;19912;-64
2022/06/10 12:47:23;;;;;;;;;;;25.50;42.00;;;;;;4897831;29;19912;-64
2022/06/10 12:49:55;;;;;;;;;;;25.40;42.00;;;;;;4897249;29;20463;-65
2022/06/10 12:52:36;;;;;;;;;;;25.40;42.40;;;;;;4898824;29;19911;-64
2022/06/10 12:55:22;;;;;;;;;;;25.40;42.50;;;;;;4901182;29;19911;-64
2022/06/10 12:57:48;;;;;;;;;;;25.40;41.60;;;;;;4900950;29;19911;-65
2022/06/10 13:00:22;;;;;;;;;;;25.40;42.30;;;;;;4903269;29;19912;-68
2022/06/10 13:02:49;;;;;;;;;;;25.40;42.00;;;;;;4909252;29;19915;-64
2022/06/10 13:05:23;;;;;;;;;;;25.40;42.30;;;;;;4906590;29;19924;-70
2022/06/10 13:07:49;;;;;;;;;;;25.50;40.50;;;;;;4907469;29;19923;-67
2022/06/10 13:10:30;;;;;;;;;;;25.60;41.00;;;;;;4910477;29;20375;-70
2022/06/10 13:13:16;;;;;;;;;;;25.60;41.30;;;;;;4902555;29;20376;-70
2022/06/10 13:15:45;;;;;;;;;;;25.70;41.60;;;;;;4902009;29;19918;-67
2022/06/10 13:18:16;;;;;;;;;;;25.80;41.90;;;;;;4902561;29;20316;-72
2022/06/10 13:20:43;;;;;;;;;;;26.00;43.00;;;;;;4901619;29;19923;-70
2022/06/10 13:23:10;;;;;;;;;;;26.00;41.40;;;;;;4901408;29;19915;-70
2022/06/10 13:25:36;;;;;;;;;;;26.00;41.70;;;;;;4901428;29;20034;-72
2022/06/10 13:28:02;;;;;;;;;;;26.00;40.10;;;;;;4902072;29;19934;-72
2022/06/10 13:30:31;;;;;;;;;;;26.00;41.60;;;;;;4901850;29;19926;-70
2022/06/10 13:33:05;;;;;;;;;;;25.90;41.90;;;;;;4901778;29;19916;-72
2022/06/10 13:35:36;;;;;;;;;;;26.00;42.60;;;;;;4901204;29;19934;-66
2022/06/10 13:38:18;;;;;;;;;;;26.00;41.00;;;;;;4901417;29;19915;-65
2022/06/10 13:40:49;;;;;;;;;;;26.00;41.80;;;;;;4901869;29;19911;-67
2022/06/10 13:43:31;;;;;;;;;;;25.90;41.60;;;;;;4884703;29;20356;-69
2022/06/10 13:45:56;;;;;;;;;;;25.90;42.00;;;;;;4902223;29;19947;-70
2022/06/10 13:48:23;;;;;;;;;;;25.80;41.70;;;;;;4902925;29;19919;-75
2022/06/10 13:51:18;;;;;;;;;;;25.90;42.20;;;;;;4902957;29;20295;-74
2022/06/10 13:53:56;;;;;;;;;;;25.90;41.60;;;;;;4902864;29;19912;-74
2022/06/10 13:56:48;;;;;;;;;;;25.90;42.60;;;;;;4902210;29;19916;-72
2022/06/10 13:59:30;;;;;;;;;;;25.90;41.80;;;;;;4900644;29;19912;-67
2022/06/10 14:01:57;;;;;;;;;;;25.80;41.20;;;;;;4900723;29;19994;-67
2022/06/10 14:04:24;;;;;;;;;;;25.80;41.90;;;;;;4900277;29;20003;-67
2022/06/10 14:06:52;;;;;;;;;;;25.80;42.90;;;;;;4900518;29;20018;-66
2022/06/10 14:09:17;;;;;;;;;;;25.80;42.30;;;;;;4900474;29;19926;-71
2022/06/10 14:11:44;;;;;;;;;;;25.80;41.70;;;;;;4900485;29;19924;-68
2022/06/10 14:14:09;;;;;;;;;;;25.90;41.90;;;;;;4883714;29;19923;-67
2022/06/10 14:16:35;;;;;;;;;;;25.90;41.80;;;;;;4900624;29;20257;-69
2022/06/10 14:19:11;;;;;;;;;;;25.90;41.20;;;;;;4900389;29;19998;-66
2022/06/10 14:21:37;;;;;;;;;;;25.90;41.60;;;;;;4900679;29;19942;-68
2022/06/10 14:24:13;;;;;;;;;;;26.00;42.00;;;;;;4900842;29;19912;-71
2022/06/10 14:26:39;;;;;;;;;;;26.00;41.50;;;;;;4900717;29;19954;-66
2022/06/10 14:29:27;;;;;;;;;;;26.00;42.00;;;;;;4900340;29;19915;-68
2022/06/10 14:32:03;;;;;;;;;;;25.90;42.60;;;;;;4900173;29;20063;-66
2022/06/10 14:34:29;;;;;;;;;;;26.00;43.10;;;;;;4902258;29;19911;-70
2022/06/10 14:37:05;;;;;;;;;;;26.20;42.60;;;;;;4908153;29;19922;-71
2022/06/10 14:39:33;;;;;;;;;;;26.40;42.60;;;;;;4908081;29;20013;-70
2022/06/10 14:42:12;;;;;;;;;;;26.50;41.80;;;;;;4906688;29;20356;-67
2022/06/10 14:44:40;;;;;;;;;;;26.70;41.20;;;;;;4909221;29;20288;-69